sensor_id;sensor_type;location;lat;lon;timestamp;pressure;altitude;pressure_sealevel;temperature;humidity
77381;BME280;66439;50.106;10.996;2023-03-01T00:01:36;99812.59;;;0.55;60.80
77381;BME280;66439;50.106;10.996;2023-03-01T00:03:39;99810.77;;;0.56;60.69
77381;BME280;66439;50.106;10.996;2023-03-01T00:05:46;99805.66;;;0.57;60.63
77381;BME280;66439;50.106;10.996;2023-03-01T00:07:52;99803.72;;;0.55;60.34
77381;BME280;66439;50.106;10.996;2023-03-01T00:09:55;99799.41;;;0.48;60.14
77381;BME280;66439;50.106;10.996;2023-03-01T00:11:58;99797.34;;;0.42;60.11
77381;BME280;66439;50.106;10.996;2023-03-01T00:14:02;99796.32;;;0.39;60.39
77381;BME280;66439;50.106;10.996;2023-03-01T00:16:10;99793.05;;;0.38;60.74
77381;BME280;66439;50.106;10.996;2023-03-01T00:18:13;99792.63;;;0.39;60.80
77381;BME280;66439;50.106;10.996;2023-03-01T00:20:16;99795.85;;;0.37;60.48
77381;BME280;66439;50.106;10.996;2023-03-01T00:22:19;99796.09;;;0.34;60.41
77381;BME280;66439;50.106;10.996;2023-03-01T00:24:22;99795.59;;;0.33;60.69
77381;BME280;66439;50.106;10.996;2023-03-01T00:26:26;99794.77;;;0.35;61.11
77381;BME280;66439;50.106;10.996;2023-03-01T00:28:31;99789.49;;;0.39;61.00
77381;BME280;66439;50.106;10.996;2023-03-01T00:30:33;99788.80;;;0.41;60.91
77381;BME280;66439;50.106;10.996;2023-03-01T00:32:37;99785.70;;;0.44;60.85
77381;BME280;66439;50.106;10.996;2023-03-01T00:34:40;99786.91;;;0.47;60.87
77381;BME280;66439;50.106;10.996;2023-03-01T00:36:43;99778.71;;;0.47;60.63
77381;BME280;66439;50.106;10.996;2023-03-01T00:38:45;99776.18;;;0.43;60.19
77381;BME280;66439;50.106;10.996;2023-03-01T00:40:48;99775.42;;;0.38;60.38
77381;BME280;66439;50.106;10.996;2023-03-01T00:42:51;99774.38;;;0.38;60.82
77381;BME280;66439;50.106;10.996;2023-03-01T00:44:54;99769.71;;;0.40;60.97
77381;BME280;66439;50.106;10.996;2023-03-01T00:46:57;99774.56;;;0.44;60.97
77381;BME280;66439;50.106;10.996;2023-03-01T00:49:00;99773.39;;;0.45;60.92
77381;BME280;66439;50.106;10.996;2023-03-01T00:51:12;99773.16;;;0.46;60.84
77381;BME280;66439;50.106;10.996;2023-03-01T00:53:16;99772.11;;;0.47;60.91
77381;BME280;66439;50.106;10.996;2023-03-01T00:55:19;99773.58;;;0.48;61.04
77381;BME280;66439;50.106;10.996;2023-03-01T00:57:21;99771.77;;;0.50;61.10
77381;BME280;66439;50.106;10.996;2023-03-01T00:59:26;99773.63;;;0.51;60.81
77381;BME280;66439;50.106;10.996;2023-03-01T01:01:30;99771.59;;;0.44;60.25
77381;BME280;66439;50.106;10.996;2023-03-01T01:03:33;99772.46;;;0.35;60.19
77381;BME280;66439;50.106;10.996;2023-03-01T01:05:39;99776.02;;;0.28;60.39
77381;BME280;66439;50.106;10.996;2023-03-01T01:07:42;99772.23;;;0.21;60.50
77381;BME280;66439;50.106;10.996;2023-03-01T01:09:46;99769.36;;;0.14;60.52
77381;BME280;66439;50.106;10.996;2023-03-01T01:11:50;99767.90;;;0.09;60.77
77381;BME280;66439;50.106;10.996;2023-03-01T01:13:54;99767.61;;;0.08;61.34
77381;BME280;66439;50.106;10.996;2023-03-01T01:16:02;99764.63;;;0.12;61.51
77381;BME280;66439;50.106;10.996;2023-03-01T01:18:05;99760.79;;;0.15;61.53
77381;BME280;66439;50.106;10.996;2023-03-01T01:20:09;99757.66;;;0.17;61.26
77381;BME280;66439;50.106;10.996;2023-03-01T01:22:12;99755.85;;;0.18;61.14
77381;BME280;66439;50.106;10.996;2023-03-01T01:24:16;99752.97;;;0.20;61.39
77381;BME280;66439;50.106;10.996;2023-03-01T01:26:26;99748.02;;;0.21;61.07
77381;BME280;66439;50.106;10.996;2023-03-01T01:28:29;99742.73;;;0.17;60.76
77381;BME280;66439;50.106;10.996;2023-03-01T01:30:31;99739.90;;;0.12;60.94
77381;BME280;66439;50.106;10.996;2023-03-01T01:32:34;99739.90;;;0.09;60.90
77381;BME280;66439;50.106;10.996;2023-03-01T01:34:38;99731.58;;;0.05;60.92
77381;BME280;66439;50.106;10.996;2023-03-01T01:36:43;99730.28;;;-0.03;60.73
77381;BME280;66439;50.106;10.996;2023-03-01T01:38:47;99732.03;;;-0.09;61.01
77381;BME280;66439;50.106;10.996;2023-03-01T01:40:51;99725.21;;;-0.11;61.40
77381;BME280;66439;50.106;10.996;2023-03-01T01:42:54;99726.31;;;-0.09;61.53
77381;BME280;66439;50.106;10.996;2023-03-01T01:47:35;99726.77;;;-0.05;61.52
77381;BME280;66439;50.106;10.996;2023-03-01T01:49:43;99726.70;;;-0.07;61.39
77381;BME280;66439;50.106;10.996;2023-03-01T01:51:48;99727.61;;;-0.08;61.41
77381;BME280;66439;50.106;10.996;2023-03-01T01:53:56;99729.36;;;-0.11;61.25
77381;BME280;66439;50.106;10.996;2023-03-01T01:56:02;99727.36;;;-0.15;61.35
77381;BME280;66439;50.106;10.996;2023-03-01T01:58:09;99729.09;;;-0.21;61.26
77381;BME280;66439;50.106;10.996;2023-03-01T02:00:23;99726.70;;;-0.25;61.39
77381;BME280;66439;50.106;10.996;2023-03-01T02:02:29;99723.77;;;-0.25;61.46
77381;BME280;66439;50.106;10.996;2023-03-01T02:04:32;99722.33;;;-0.27;61.52
77381;BME280;66439;50.106;10.996;2023-03-01T02:06:43;99723.87;;;-0.27;61.85
77381;BME280;66439;50.106;10.996;2023-03-01T02:08:50;99720.69;;;-0.23;62.25
77381;BME280;66439;50.106;10.996;2023-03-01T02:10:56;99720.17;;;-0.17;62.37
77381;BME280;66439;50.106;10.996;2023-03-01T02:13:01;99713.52;;;-0.17;61.70
77381;BME280;66439;50.106;10.996;2023-03-01T02:15:06;99712.50;;;-0.20;61.57
77381;BME280;66439;50.106;10.996;2023-03-01T02:17:10;99709.92;;;-0.24;61.53
77381;BME280;66439;50.106;10.996;2023-03-01T02:19:27;99707.63;;;-0.29;61.47
77381;BME280;66439;50.106;10.996;2023-03-01T02:24:44;99701.45;;;-0.39;61.90
77381;BME280;66439;50.106;10.996;2023-03-01T02:26:54;99698.29;;;-0.36;62.29
77381;BME280;66439;50.106;10.996;2023-03-01T02:28:57;99698.95;;;-0.36;62.06
77381;BME280;66439;50.106;10.996;2023-03-01T02:31:03;99698.05;;;-0.35;62.03
77381;BME280;66439;50.106;10.996;2023-03-01T02:33:26;99694.19;;;-0.34;62.25
77381;BME280;66439;50.106;10.996;2023-03-01T02:35:35;99686.48;;;-0.31;62.50
77381;BME280;66439;50.106;10.996;2023-03-01T02:37:40;99685.08;;;-0.31;61.99
77381;BME280;66439;50.106;10.996;2023-03-01T02:39:48;99681.04;;;-0.33;61.93
77381;BME280;66439;50.106;10.996;2023-03-01T02:41:53;99680.25;;;-0.37;61.86
77381;BME280;66439;50.106;10.996;2023-03-01T02:43:57;99679.59;;;-0.38;62.27
77381;BME280;66439;50.106;10.996;2023-03-01T02:46:13;99678.18;;;-0.35;62.57
77381;BME280;66439;50.106;10.996;2023-03-01T02:48:17;99674.36;;;-0.32;62.45
77381;BME280;66439;50.106;10.996;2023-03-01T02:52:40;99672.40;;;-0.34;62.28
77381;BME280;66439;50.106;10.996;2023-03-01T02:56:54;99669.40;;;-0.39;62.13
77381;BME280;66439;50.106;10.996;2023-03-01T02:58:58;99662.25;;;-0.42;62.17
77381;BME280;66439;50.106;10.996;2023-03-01T03:01:04;99660.40;;;-0.46;62.19
77381;BME280;66439;50.106;10.996;2023-03-01T03:03:07;99664.42;;;-0.49;62.21
77381;BME280;66439;50.106;10.996;2023-03-01T03:05:16;99662.41;;;-0.51;62.18
77381;BME280;66439;50.106;10.996;2023-03-01T03:07:20;99660.61;;;-0.53;62.30
77381;BME280;66439;50.106;10.996;2023-03-01T03:09:25;99658.74;;;-0.57;62.28
77381;BME280;66439;50.106;10.996;2023-03-01T03:11:28;99654.75;;;-0.60;62.32
77381;BME280;66439;50.106;10.996;2023-03-01T03:13:32;99652.72;;;-0.64;62.35
77381;BME280;66439;50.106;10.996;2023-03-01T03:15:36;99650.80;;;-0.67;62.52
77381;BME280;66439;50.106;10.996;2023-03-01T03:17:41;99651.23;;;-0.62;62.94
77381;BME280;66439;50.106;10.996;2023-03-01T03:19:46;99654.73;;;-0.60;62.92
77381;BME280;66439;50.106;10.996;2023-03-01T03:21:50;99650.48;;;-0.55;63.07
77381;BME280;66439;50.106;10.996;2023-03-01T03:23:53;99650.51;;;-0.53;62.70
77381;BME280;66439;50.106;10.996;2023-03-01T03:25:56;99651.04;;;-0.50;62.95
77381;BME280;66439;50.106;10.996;2023-03-01T03:27:59;99649.88;;;-0.48;62.84
77381;BME280;66439;50.106;10.996;2023-03-01T03:30:02;99649.16;;;-0.48;62.53
77381;BME280;66439;50.106;10.996;2023-03-01T03:32:06;99650.15;;;-0.50;62.33
77381;BME280;66439;50.106;10.996;2023-03-01T03:34:09;99648.88;;;-0.52;62.35
77381;BME280;66439;50.106;10.996;2023-03-01T03:36:22;99654.09;;;-0.57;62.25
77381;BME280;66439;50.106;10.996;2023-03-01T03:38:26;99652.59;;;-0.61;62.39
77381;BME280;66439;50.106;10.996;2023-03-01T03:40:33;99651.20;;;-0.65;62.41
77381;BME280;66439;50.106;10.996;2023-03-01T03:42:36;99651.58;;;-0.68;62.49
77381;BME280;66439;50.106;10.996;2023-03-01T03:44:39;99650.43;;;-0.72;62.36
77381;BME280;66439;50.106;10.996;2023-03-01T03:46:42;99650.35;;;-0.77;62.37
77381;BME280;66439;50.106;10.996;2023-03-01T03:48:46;99654.08;;;-0.81;62.45
77381;BME280;66439;50.106;10.996;2023-03-01T03:50:54;99655.70;;;-0.82;62.92
77381;BME280;66439;50.106;10.996;2023-03-01T03:53:00;99651.98;;;-0.78;63.33
77381;BME280;66439;50.106;10.996;2023-03-01T03:55:04;99653.45;;;-0.74;63.08
77381;BME280;66439;50.106;10.996;2023-03-01T03:57:13;99651.94;;;-0.71;63.33
77381;BME280;66439;50.106;10.996;2023-03-01T03:59:17;99648.11;;;-0.68;63.00
77381;BME280;66439;50.106;10.996;2023-03-01T04:01:19;99648.60;;;-0.71;62.79
77381;BME280;66439;50.106;10.996;2023-03-01T04:03:24;99650.16;;;-0.74;62.75
77381;BME280;66439;50.106;10.996;2023-03-01T04:05:27;99651.14;;;-0.79;62.58
77381;BME280;66439;50.106;10.996;2023-03-01T04:07:34;99649.92;;;-0.85;62.71
77381;BME280;66439;50.106;10.996;2023-03-01T04:09:37;99653.99;;;-0.89;63.03
77381;BME280;66439;50.106;10.996;2023-03-01T04:11:39;99660.67;;;-0.90;63.15
77381;BME280;66439;50.106;10.996;2023-03-01T04:13:42;99665.11;;;-0.88;63.42
77381;BME280;66439;50.106;10.996;2023-03-01T04:15:49;99667.30;;;-0.87;63.29
77381;BME280;66439;50.106;10.996;2023-03-01T04:17:54;99670.12;;;-0.85;63.62
77381;BME280;66439;50.106;10.996;2023-03-01T04:19:57;99670.95;;;-0.82;63.36
77381;BME280;66439;50.106;10.996;2023-03-01T04:22:04;99667.40;;;-0.77;63.59
77381;BME280;66439;50.106;10.996;2023-03-01T04:24:11;99667.23;;;-0.74;63.39
77381;BME280;66439;50.106;10.996;2023-03-01T04:26:15;99668.39;;;-0.79;62.91
77381;BME280;66439;50.106;10.996;2023-03-01T04:28:18;99664.20;;;-0.88;62.92
77381;BME280;66439;50.106;10.996;2023-03-01T04:30:21;99659.97;;;-0.96;62.91
77381;BME280;66439;50.106;10.996;2023-03-01T04:32:28;99656.09;;;-1.04;62.90
77381;BME280;66439;50.106;10.996;2023-03-01T04:34:35;99651.38;;;-1.10;63.13
77381;BME280;66439;50.106;10.996;2023-03-01T04:36:39;99649.77;;;-1.16;63.29
77381;BME280;66439;50.106;10.996;2023-03-01T04:38:43;99648.92;;;-1.19;63.72
77381;BME280;66439;50.106;10.996;2023-03-01T04:40:50;99641.79;;;-1.19;63.72
77381;BME280;66439;50.106;10.996;2023-03-01T04:42:52;99638.99;;;-1.22;63.81
77381;BME280;66439;50.106;10.996;2023-03-01T04:44:55;99633.67;;;-1.27;63.70
77381;BME280;66439;50.106;10.996;2023-03-01T04:46:58;99633.84;;;-1.30;63.79
77381;BME280;66439;50.106;10.996;2023-03-01T04:49:02;99639.02;;;-1.32;64.01
77381;BME280;66439;50.106;10.996;2023-03-01T04:51:06;99636.10;;;-1.32;63.87
77381;BME280;66439;50.106;10.996;2023-03-01T04:53:11;99639.29;;;-1.30;64.17
77381;BME280;66439;50.106;10.996;2023-03-01T04:55:13;99641.09;;;-1.26;63.99
77381;BME280;66439;50.106;10.996;2023-03-01T04:57:16;99638.62;;;-1.25;63.82
77381;BME280;66439;50.106;10.996;2023-03-01T04:59:21;99636.21;;;-1.22;63.91
77381;BME280;66439;50.106;10.996;2023-03-01T05:01:25;99637.56;;;-1.18;63.68
77381;BME280;66439;50.106;10.996;2023-03-01T05:03:28;99630.39;;;-1.17;63.64
77381;BME280;66439;50.106;10.996;2023-03-01T05:05:35;99630.17;;;-1.17;63.68
77381;BME280;66439;50.106;10.996;2023-03-01T05:07:39;99628.28;;;-1.17;63.68
77381;BME280;66439;50.106;10.996;2023-03-01T05:09:43;99628.23;;;-1.16;63.85
77381;BME280;66439;50.106;10.996;2023-03-01T05:11:45;99625.70;;;-1.12;63.88
77381;BME280;66439;50.106;10.996;2023-03-01T05:13:49;99624.77;;;-1.07;63.78
77381;BME280;66439;50.106;10.996;2023-03-01T05:16:00;99624.36;;;-1.06;63.55
77381;BME280;66439;50.106;10.996;2023-03-01T05:18:03;99626.30;;;-1.07;63.63
77381;BME280;66439;50.106;10.996;2023-03-01T05:20:06;99629.83;;;-1.04;63.77
77381;BME280;66439;50.106;10.996;2023-03-01T05:22:11;99624.16;;;-1.03;63.57
77381;BME280;66439;50.106;10.996;2023-03-01T05:24:14;99621.89;;;-1.06;63.49
77381;BME280;66439;50.106;10.996;2023-03-01T05:26:18;99610.95;;;-1.06;63.52
77381;BME280;66439;50.106;10.996;2023-03-01T05:28:31;99609.30;;;-1.08;63.50
77381;BME280;66439;50.106;10.996;2023-03-01T05:30:34;99605.64;;;-1.04;63.60
77381;BME280;66439;50.106;10.996;2023-03-01T05:32:37;99604.71;;;-1.01;63.85
77381;BME280;66439;50.106;10.996;2023-03-01T05:34:40;99599.17;;;-0.97;63.44
77381;BME280;66439;50.106;10.996;2023-03-01T05:36:43;99600.52;;;-0.97;63.37
77381;BME280;66439;50.106;10.996;2023-03-01T05:38:45;99596.59;;;-0.98;63.30
77381;BME280;66439;50.106;10.996;2023-03-01T05:40:48;99596.61;;;-0.99;63.20
77381;BME280;66439;50.106;10.996;2023-03-01T05:42:55;99595.69;;;-0.97;63.37
77381;BME280;66439;50.106;10.996;2023-03-01T05:44:58;99603.92;;;-0.95;63.40
77381;BME280;66439;50.106;10.996;2023-03-01T05:47:01;99608.64;;;-0.93;63.43
77381;BME280;66439;50.106;10.996;2023-03-01T05:49:06;99610.61;;;-0.91;63.52
77381;BME280;66439;50.106;10.996;2023-03-01T05:51:10;99611.50;;;-0.88;63.46
77381;BME280;66439;50.106;10.996;2023-03-01T05:53:17;99608.89;;;-0.88;63.16
77381;BME280;66439;50.106;10.996;2023-03-01T05:55:21;99604.48;;;-0.93;63.01
77381;BME280;66439;50.106;10.996;2023-03-01T05:57:24;99603.55;;;-1.01;63.09
77381;BME280;66439;50.106;10.996;2023-03-01T05:59:28;99599.82;;;-1.06;63.11
77381;BME280;66439;50.106;10.996;2023-03-01T06:01:32;99595.45;;;-1.12;63.28
77381;BME280;66439;50.106;10.996;2023-03-01T06:03:35;99596.88;;;-1.12;63.36
77381;BME280;66439;50.106;10.996;2023-03-01T06:05:39;99602.91;;;-1.14;63.39
77381;BME280;66439;50.106;10.996;2023-03-01T06:07:42;99603.56;;;-1.16;63.39
77381;BME280;66439;50.106;10.996;2023-03-01T06:09:45;99603.47;;;-1.18;63.54
77381;BME280;66439;50.106;10.996;2023-03-01T06:11:48;99602.61;;;-1.18;63.55
77381;BME280;66439;50.106;10.996;2023-03-01T06:13:51;99598.92;;;-1.21;63.64
77381;BME280;66439;50.106;10.996;2023-03-01T06:15:56;99603.57;;;-1.23;63.77
77381;BME280;66439;50.106;10.996;2023-03-01T06:18:01;99604.73;;;-1.22;63.72
77381;BME280;66439;50.106;10.996;2023-03-01T06:20:05;99606.63;;;-1.22;63.68
77381;BME280;66439;50.106;10.996;2023-03-01T06:22:10;99608.52;;;-1.21;63.68
77381;BME280;66439;50.106;10.996;2023-03-01T06:24:15;99611.30;;;-1.21;63.65
77381;BME280;66439;50.106;10.996;2023-03-01T06:26:18;99608.28;;;-1.20;63.73
77381;BME280;66439;50.106;10.996;2023-03-01T06:28:21;99601.30;;;-1.19;63.65
77381;BME280;66439;50.106;10.996;2023-03-01T06:30:27;99606.23;;;-1.21;63.80
77381;BME280;66439;50.106;10.996;2023-03-01T06:32:30;99606.45;;;-1.18;63.81
77381;BME280;66439;50.106;10.996;2023-03-01T06:34:33;99605.63;;;-1.16;63.77
77381;BME280;66439;50.106;10.996;2023-03-01T06:36:36;99599.16;;;-1.16;63.61
77381;BME280;66439;50.106;10.996;2023-03-01T06:38:39;99595.74;;;-1.16;63.89
77381;BME280;66439;50.106;10.996;2023-03-01T06:40:43;99600.67;;;-1.18;63.87
77381;BME280;66439;50.106;10.996;2023-03-01T06:42:48;99608.36;;;-1.18;63.88
77381;BME280;66439;50.106;10.996;2023-03-01T06:44:51;99609.00;;;-1.17;64.14
77381;BME280;66439;50.106;10.996;2023-03-01T06:46:56;99606.17;;;-1.16;64.03
77381;BME280;66439;50.106;10.996;2023-03-01T06:49:00;99600.66;;;-1.14;63.91
77381;BME280;66439;50.106;10.996;2023-03-01T06:51:03;99599.92;;;-1.11;63.96
77381;BME280;66439;50.106;10.996;2023-03-01T06:53:06;99594.00;;;-1.08;64.01
77381;BME280;66439;50.106;10.996;2023-03-01T06:55:09;99588.84;;;-1.03;64.07
77381;BME280;66439;50.106;10.996;2023-03-01T06:57:12;99596.04;;;-0.98;64.05
77381;BME280;66439;50.106;10.996;2023-03-01T06:59:17;99601.08;;;-0.94;63.94
77381;BME280;66439;50.106;10.996;2023-03-01T07:01:20;99594.95;;;-0.94;63.67
77381;BME280;66439;50.106;10.996;2023-03-01T07:03:24;99594.95;;;-0.94;63.73
77381;BME280;66439;50.106;10.996;2023-03-01T07:05:27;99597.60;;;-0.91;63.68
77381;BME280;66439;50.106;10.996;2023-03-01T07:07:30;99595.43;;;-0.90;63.81
77381;BME280;66439;50.106;10.996;2023-03-01T07:09:33;99594.43;;;-0.88;63.87
77381;BME280;66439;50.106;10.996;2023-03-01T07:11:36;99592.73;;;-0.85;63.82
77381;BME280;66439;50.106;10.996;2023-03-01T07:13:39;99596.13;;;-0.84;63.63
77381;BME280;66439;50.106;10.996;2023-03-01T07:15:42;99600.30;;;-0.81;63.79
77381;BME280;66439;50.106;10.996;2023-03-01T07:17:45;99597.05;;;-0.79;63.70
77381;BME280;66439;50.106;10.996;2023-03-01T07:19:50;99592.20;;;-0.76;63.72
77381;BME280;66439;50.106;10.996;2023-03-01T07:21:53;99587.70;;;-0.74;63.60
77381;BME280;66439;50.106;10.996;2023-03-01T07:23:56;99587.55;;;-0.71;63.71
77381;BME280;66439;50.106;10.996;2023-03-01T07:25:59;99588.36;;;-0.67;63.61
77381;BME280;66439;50.106;10.996;2023-03-01T07:28:03;99586.06;;;-0.66;63.59
77381;BME280;66439;50.106;10.996;2023-03-01T07:30:06;99581.72;;;-0.67;63.47
77381;BME280;66439;50.106;10.996;2023-03-01T07:32:11;99576.86;;;-0.64;63.54
77381;BME280;66439;50.106;10.996;2023-03-01T07:34:14;99572.55;;;-0.59;63.68
77381;BME280;66439;50.106;10.996;2023-03-01T07:36:17;99574.19;;;-0.57;63.57
77381;BME280;66439;50.106;10.996;2023-03-01T07:38:20;99571.38;;;-0.57;63.48
77381;BME280;66439;50.106;10.996;2023-03-01T07:40:22;99570.58;;;-0.55;63.58
77381;BME280;66439;50.106;10.996;2023-03-01T07:42:27;99563.84;;;-0.53;63.47
77381;BME280;66439;50.106;10.996;2023-03-01T07:44:30;99560.70;;;-0.50;63.48
77381;BME280;66439;50.106;10.996;2023-03-01T07:46:33;99561.09;;;-0.45;63.38
77381;BME280;66439;50.106;10.996;2023-03-01T07:48:37;99556.27;;;-0.40;63.21
77381;BME280;66439;50.106;10.996;2023-03-01T07:50:39;99557.80;;;-0.36;63.25
77381;BME280;66439;50.106;10.996;2023-03-01T07:52:45;99556.43;;;-0.34;63.06
77381;BME280;66439;50.106;10.996;2023-03-01T07:54:47;99558.45;;;-0.33;62.96
77381;BME280;66439;50.106;10.996;2023-03-01T07:56:50;99562.08;;;-0.30;63.03
77381;BME280;66439;50.106;10.996;2023-03-01T07:58:53;99559.63;;;-0.27;63.23
77381;BME280;66439;50.106;10.996;2023-03-01T08:00:56;99557.00;;;-0.23;63.10
77381;BME280;66439;50.106;10.996;2023-03-01T08:02:59;99554.14;;;-0.19;63.15
77381;BME280;66439;50.106;10.996;2023-03-01T08:05:04;99555.43;;;-0.15;63.08
77381;BME280;66439;50.106;10.996;2023-03-01T08:07:06;99556.31;;;-0.09;62.76
77381;BME280;66439;50.106;10.996;2023-03-01T08:09:09;99551.73;;;-0.03;62.61
77381;BME280;66439;50.106;10.996;2023-03-01T08:11:13;99550.35;;;0.06;62.75
77381;BME280;66439;50.106;10.996;2023-03-01T08:13:18;99543.68;;;0.14;62.80
77381;BME280;66439;50.106;10.996;2023-03-01T08:15:26;99541.42;;;0.20;62.54
77381;BME280;66439;50.106;10.996;2023-03-01T08:17:29;99539.31;;;0.26;62.62
77381;BME280;66439;50.106;10.996;2023-03-01T08:19:32;99541.07;;;0.31;62.03
77381;BME280;66439;50.106;10.996;2023-03-01T08:21:37;99536.34;;;0.34;61.95
77381;BME280;66439;50.106;10.996;2023-03-01T08:23:40;99535.44;;;0.40;61.96
77381;BME280;66439;50.106;10.996;2023-03-01T08:25:43;99540.20;;;0.44;61.98
77381;BME280;66439;50.106;10.996;2023-03-01T08:27:46;99540.98;;;0.48;61.61
77381;BME280;66439;50.106;10.996;2023-03-01T08:29:49;99542.13;;;0.53;61.87
77381;BME280;66439;50.106;10.996;2023-03-01T08:31:52;99542.73;;;0.57;61.67
77381;BME280;66439;50.106;10.996;2023-03-01T08:33:58;99543.05;;;0.63;61.83
77381;BME280;66439;50.106;10.996;2023-03-01T08:36:03;99544.23;;;0.68;61.58
77381;BME280;66439;50.106;10.996;2023-03-01T08:38:07;99538.92;;;0.75;61.57
77381;BME280;66439;50.106;10.996;2023-03-01T08:40:10;99536.06;;;0.81;61.44
77381;BME280;66439;50.106;10.996;2023-03-01T08:42:14;99530.23;;;0.88;60.97
77381;BME280;66439;50.106;10.996;2023-03-01T08:44:17;99535.48;;;0.93;60.38
77381;BME280;66439;50.106;10.996;2023-03-01T08:46:22;99532.75;;;0.97;60.15
77381;BME280;66439;50.106;10.996;2023-03-01T08:48:27;99533.50;;;1.02;59.82
77381;BME280;66439;50.106;10.996;2023-03-01T08:50:31;99530.89;;;1.07;59.85
77381;BME280;66439;50.106;10.996;2023-03-01T08:52:34;99527.39;;;1.12;59.83
77381;BME280;66439;50.106;10.996;2023-03-01T08:54:38;99526.31;;;1.18;59.91
77381;BME280;66439;50.106;10.996;2023-03-01T08:56:41;99523.33;;;1.23;59.54
77381;BME280;66439;50.106;10.996;2023-03-01T08:58:45;99517.52;;;1.29;59.54
77381;BME280;66439;50.106;10.996;2023-03-01T09:00:49;99509.45;;;1.35;59.33
77381;BME280;66439;50.106;10.996;2023-03-01T09:02:52;99509.36;;;1.41;59.57
77381;BME280;66439;50.106;10.996;2023-03-01T09:04:56;99511.88;;;1.48;59.17
77381;BME280;66439;50.106;10.996;2023-03-01T09:06:58;99504.94;;;1.52;58.37
77381;BME280;66439;50.106;10.996;2023-03-01T09:09:03;99501.49;;;1.56;58.23
77381;BME280;66439;50.106;10.996;2023-03-01T09:11:09;99495.84;;;1.60;57.30
77381;BME280;66439;50.106;10.996;2023-03-01T09:13:12;99489.60;;;1.62;57.30
77381;BME280;66439;50.106;10.996;2023-03-01T09:15:16;99484.77;;;1.66;57.52
77381;BME280;66439;50.106;10.996;2023-03-01T09:17:18;99483.87;;;1.71;57.50
77381;BME280;66439;50.106;10.996;2023-03-01T09:19:25;99486.73;;;1.75;57.48
77381;BME280;66439;50.106;10.996;2023-03-01T09:21:30;99488.55;;;1.81;57.31
77381;BME280;66439;50.106;10.996;2023-03-01T09:23:44;99486.67;;;1.86;56.91
77381;BME280;66439;50.106;10.996;2023-03-01T09:25:48;99479.40;;;1.90;56.65
77381;BME280;66439;50.106;10.996;2023-03-01T09:27:54;99479.14;;;1.93;56.49
77381;BME280;66439;50.106;10.996;2023-03-01T09:29:57;99480.44;;;1.98;56.36
77381;BME280;66439;50.106;10.996;2023-03-01T09:32:02;99481.67;;;2.02;56.28
77381;BME280;66439;50.106;10.996;2023-03-01T09:34:06;99477.02;;;2.06;56.20
77381;BME280;66439;50.106;10.996;2023-03-01T09:36:14;99478.26;;;2.11;55.98
77381;BME280;66439;50.106;10.996;2023-03-01T09:38:17;99477.20;;;2.16;55.91
77381;BME280;66439;50.106;10.996;2023-03-01T09:40:23;99474.88;;;2.19;55.58
77381;BME280;66439;50.106;10.996;2023-03-01T09:42:29;99476.02;;;2.25;55.49
77381;BME280;66439;50.106;10.996;2023-03-01T09:44:42;99475.11;;;2.28;54.77
77381;BME280;66439;50.106;10.996;2023-03-01T09:46:46;99474.15;;;2.31;54.88
77381;BME280;66439;50.106;10.996;2023-03-01T09:49:01;99466.05;;;2.36;55.28
77381;BME280;66439;50.106;10.996;2023-03-01T09:51:12;99465.42;;;2.43;54.98
77381;BME280;66439;50.106;10.996;2023-03-01T09:53:18;99468.14;;;2.49;55.12
77381;BME280;66439;50.106;10.996;2023-03-01T09:55:37;99465.68;;;2.54;54.78
77381;BME280;66439;50.106;10.996;2023-03-01T09:57:49;99462.62;;;2.60;54.79
77381;BME280;66439;50.106;10.996;2023-03-01T10:02:23;99461.10;;;2.71;54.63
77381;BME280;66439;50.106;10.996;2023-03-01T10:07:02;99453.39;;;2.80;53.73
77381;BME280;66439;50.106;10.996;2023-03-01T10:09:12;99457.17;;;2.83;53.26
77381;BME280;66439;50.106;10.996;2023-03-01T10:11:31;99455.83;;;2.85;52.82
77381;BME280;66439;50.106;10.996;2023-03-01T10:16:12;99453.27;;;2.93;53.08
77381;BME280;66439;50.106;10.996;2023-03-01T10:18:21;99452.86;;;2.99;53.30
77381;BME280;66439;50.106;10.996;2023-03-01T10:20:30;99450.92;;;3.04;52.84
77381;BME280;66439;50.106;10.996;2023-03-01T10:22:36;99446.92;;;3.08;52.80
77381;BME280;66439;50.106;10.996;2023-03-01T10:24:39;99442.83;;;3.13;52.88
77381;BME280;66439;50.106;10.996;2023-03-01T10:27:11;99438.77;;;3.18;53.06
77381;BME280;66439;50.106;10.996;2023-03-01T10:29:17;99435.02;;;3.26;52.86
77381;BME280;66439;50.106;10.996;2023-03-01T10:31:24;99435.86;;;3.30;52.50
77381;BME280;66439;50.106;10.996;2023-03-01T10:33:35;99430.92;;;3.35;52.39
77381;BME280;66439;50.106;10.996;2023-03-01T10:35:39;99429.84;;;3.40;52.24
77381;BME280;66439;50.106;10.996;2023-03-01T10:38:10;99429.23;;;3.46;52.32
77381;BME280;66439;50.106;10.996;2023-03-01T10:40:14;99426.68;;;3.52;52.52
77381;BME280;66439;50.106;10.996;2023-03-01T10:42:26;99422.65;;;3.56;52.19
77381;BME280;66439;50.106;10.996;2023-03-01T10:44:44;99418.64;;;3.60;52.13
77381;BME280;66439;50.106;10.996;2023-03-01T10:46:59;99415.05;;;3.65;52.15
77381;BME280;66439;50.106;10.996;2023-03-01T10:49:19;99413.83;;;3.72;52.12
77381;BME280;66439;50.106;10.996;2023-03-01T10:51:23;99409.08;;;3.77;51.28
77381;BME280;66439;50.106;10.996;2023-03-01T10:53:35;99409.91;;;3.82;51.58
77381;BME280;66439;50.106;10.996;2023-03-01T10:55:40;99404.44;;;3.87;51.72
77381;BME280;66439;50.106;10.996;2023-03-01T10:57:43;99401.91;;;3.92;51.21
77381;BME280;66439;50.106;10.996;2023-03-01T11:00:00;99398.27;;;3.96;50.79
77381;BME280;66439;50.106;10.996;2023-03-01T11:02:23;99394.20;;;4.00;50.84
77381;BME280;66439;50.106;10.996;2023-03-01T11:04:28;99398.53;;;4.06;50.32
77381;BME280;66439;50.106;10.996;2023-03-01T11:06:33;99396.14;;;4.09;50.27
77381;BME280;66439;50.106;10.996;2023-03-01T11:10:41;99398.64;;;4.19;50.70
77381;BME280;66439;50.106;10.996;2023-03-01T11:12:45;99397.32;;;4.27;51.14
77381;BME280;66439;50.106;10.996;2023-03-01T11:14:51;99390.40;;;4.34;51.09
77381;BME280;66439;50.106;10.996;2023-03-01T11:17:01;99389.79;;;4.40;50.56
77381;BME280;66439;50.106;10.996;2023-03-01T11:21:15;99378.45;;;4.45;48.97